createdAt,value
2022-08-03T00:01:51.515Z,68.90
2022-08-03T00:04:18.230Z,69.00
2022-08-03T00:06:44.927Z,69.00
2022-08-03T00:09:11.631Z,69.00
2022-08-03T00:11:38.375Z,69.20
2022-08-03T00:14:08.440Z,69.40
2022-08-03T00:16:35.182Z,69.50
2022-08-03T00:19:02.460Z,69.50
2022-08-03T00:21:29.338Z,69.50
2022-08-03T00:23:56.216Z,69.50
2022-08-03T00:26:23.035Z,69.50
2022-08-03T00:28:50.336Z,69.60
2022-08-03T00:31:22.289Z,69.60
2022-08-03T00:34:03.712Z,69.80
2022-08-03T00:36:31.027Z,69.80
2022-08-03T00:38:57.766Z,69.90
2022-08-03T00:41:24.490Z,70.00
2022-08-03T00:43:51.206Z,70.00
2022-08-03T00:46:21.633Z,70.10
2022-08-03T00:48:49.749Z,70.00
2022-08-03T00:51:16.491Z,70.10
2022-08-03T00:53:43.201Z,70.10
2022-08-03T00:56:12.636Z,70.30
2022-08-03T00:58:39.321Z,70.40
2022-08-03T01:01:06.096Z,70.40
2022-08-03T01:03:32.810Z,70.40
2022-08-03T01:06:31.929Z,70.50
2022-08-03T01:09:25.032Z,70.60
2022-08-03T01:12:03.649Z,70.50
2022-08-03T01:15:05.071Z,70.70
2022-08-03T01:17:40.190Z,70.70
2022-08-03T01:20:12.076Z,70.80
2022-08-03T01:23:00.878Z,70.90
2022-08-03T01:25:30.376Z,70.90
2022-08-03T01:27:57.084Z,70.90
2022-08-03T01:30:31.401Z,71.10
2022-08-03T01:33:05.119Z,71.30
2022-08-03T01:35:59.089Z,71.30
2022-08-03T01:38:29.145Z,71.30
2022-08-03T01:40:56.617Z,71.30
2022-08-03T01:43:59.031Z,71.30
2022-08-03T01:46:13.967Z,71.40
2022-08-03T01:48:40.687Z,71.40
2022-08-03T01:51:08.925Z,71.50
2022-08-03T01:53:35.620Z,71.70
2022-08-03T01:56:02.332Z,71.70
2022-08-03T01:58:29.022Z,71.80
2022-08-03T02:00:55.795Z,71.80
2022-08-03T02:03:22.552Z,71.80
2022-08-03T02:05:57.203Z,71.80
2022-08-03T02:08:32.834Z,71.80
2022-08-03T02:10:59.522Z,71.90
2022-08-03T02:13:26.223Z,72.00
2022-08-03T02:15:53.396Z,72.00
2022-08-03T02:18:20.423Z,72.10
2022-08-03T02:20:47.278Z,72.20
2022-08-03T02:23:17.113Z,72.20
2022-08-03T02:25:46.048Z,72.30
2022-08-03T02:28:19.390Z,72.20
2022-08-03T02:30:47.089Z,72.10
2022-08-03T02:33:24.500Z,72.20
2022-08-03T02:35:51.174Z,72.20
2022-08-03T02:38:19.780Z,72.10
2022-08-03T02:40:46.456Z,72.20
2022-08-03T02:43:17.175Z,72.10
2022-08-03T02:45:45.859Z,72.30
2022-08-03T02:48:12.801Z,72.30
2022-08-03T02:50:39.491Z,72.20
2022-08-03T02:53:06.200Z,72.40
2022-08-03T02:55:34.610Z,72.30
2022-08-03T02:58:01.726Z,72.40
2022-08-03T03:00:29.600Z,72.40
2022-08-03T03:03:00.718Z,72.40
2022-08-03T03:05:54.962Z,72.40
2022-08-03T03:08:28.118Z,72.50
2022-08-03T03:10:59.945Z,72.60
2022-08-03T03:13:28.159Z,72.50
2022-08-03T03:15:54.865Z,72.40
2022-08-03T03:18:22.810Z,72.60
2022-08-03T03:20:50.864Z,72.60
2022-08-03T03:23:17.580Z,72.60
2022-08-03T03:25:44.257Z,72.60
2022-08-03T03:28:10.974Z,72.60
2022-08-03T03:30:37.662Z,72.60
2022-08-03T03:33:04.383Z,73.50
2022-08-03T03:35:31.062Z,72.70
2022-08-03T03:38:06.914Z,72.70
2022-08-03T03:40:35.568Z,72.70
2022-08-03T03:43:03.087Z,72.80
2022-08-03T03:45:29.800Z,72.80
2022-08-03T03:47:56.518Z,72.70
2022-08-03T03:50:23.199Z,72.70
2022-08-03T03:52:49.919Z,72.80
2022-08-03T03:55:17.853Z,72.90
2022-08-03T03:57:44.709Z,72.90
2022-08-03T04:00:13.657Z,72.90
2022-08-03T04:02:41.824Z,72.90
2022-08-03T04:05:09.568Z,73.00
2022-08-03T04:07:46.935Z,72.90
2022-08-03T04:10:18.660Z,73.00
2022-08-03T04:12:49.921Z,73.00
2022-08-03T04:15:19.685Z,73.10
2022-08-03T04:17:47.012Z,73.10
2022-08-03T04:20:14.400Z,73.20
2022-08-03T04:22:41.122Z,73.30
2022-08-03T04:25:09.385Z,73.30
2022-08-03T04:27:38.059Z,73.30
2022-08-03T04:30:05.828Z,73.20
2022-08-03T04:32:32.677Z,73.10
2022-08-03T04:34:59.455Z,73.20
2022-08-03T04:37:46.372Z,73.30
2022-08-03T04:40:30.352Z,73.10
2022-08-03T04:42:57.614Z,73.30
2022-08-03T04:45:24.309Z,73.20
2022-08-03T04:47:51.019Z,73.20
2022-08-03T04:50:21.320Z,73.30
2022-08-03T04:52:48.880Z,73.30
2022-08-03T04:55:32.273Z,73.80
2022-08-03T04:57:59.211Z,73.30
2022-08-03T05:00:26.429Z,73.30
2022-08-03T05:02:53.175Z,73.30
2022-08-03T05:05:20.042Z,73.30
2022-08-03T05:07:48.899Z,73.20
2022-08-03T05:10:16.915Z,73.40
2022-08-03T05:12:44.670Z,73.30
2022-08-03T05:15:11.507Z,73.30
2022-08-03T05:17:38.201Z,73.30
2022-08-03T05:20:05.502Z,73.10
2022-08-03T05:22:32.203Z,73.00
2022-08-03T05:24:58.903Z,73.00
2022-08-03T05:27:25.571Z,73.00
2022-08-03T05:29:52.362Z,73.00
2022-08-03T05:32:19.498Z,73.00
2022-08-03T05:34:46.538Z,73.00
2022-08-03T05:37:13.231Z,73.00
2022-08-03T05:39:39.994Z,72.80
2022-08-03T05:42:10.500Z,72.80
2022-08-03T05:44:37.260Z,73.00
2022-08-03T05:47:04.943Z,72.80
2022-08-03T05:49:32.770Z,72.70
2022-08-03T05:52:08.043Z,72.70
2022-08-03T05:54:56.211Z,72.70
2022-08-03T05:57:24.922Z,72.70
2022-08-03T05:59:58.161Z,72.50
2022-08-03T06:02:26.467Z,72.50
2022-08-03T06:04:53.325Z,72.30
2022-08-03T06:07:20.065Z,72.40
2022-08-03T06:10:34.410Z,72.30
2022-08-03T06:12:33.898Z,72.30
2022-08-03T06:15:00.611Z,72.30
2022-08-03T06:17:27.313Z,72.20
2022-08-03T06:20:05.102Z,72.20
2022-08-03T06:22:31.776Z,72.20
2022-08-03T06:24:58.679Z,72.30
2022-08-03T06:27:37.139Z,72.20
2022-08-03T06:30:05.037Z,72.10
2022-08-03T06:32:32.194Z,72.20
2022-08-03T06:34:59.080Z,72.20
2022-08-03T06:37:25.928Z,72.20
2022-08-03T06:39:53.440Z,72.20
2022-08-03T06:42:20.625Z,72.00
2022-08-03T06:44:49.309Z,72.00
2022-08-03T06:47:16.027Z,72.20
2022-08-03T06:49:42.805Z,72.20
2022-08-03T06:52:09.541Z,72.10
2022-08-03T06:54:36.358Z,72.00
2022-08-03T06:57:03.381Z,72.00
2022-08-03T07:00:07.775Z,72.80
2022-08-03T07:02:17.003Z,72.00
2022-08-03T07:04:49.456Z,71.90
2022-08-03T07:07:16.241Z,71.90
2022-08-03T07:09:42.964Z,71.90
2022-08-03T07:12:24.141Z,71.90
2022-08-03T07:14:50.833Z,71.90
2022-08-03T07:17:17.566Z,71.80
2022-08-03T07:19:44.305Z,71.70
2022-08-03T07:22:23.034Z,71.60
2022-08-03T07:24:49.788Z,71.70
2022-08-03T07:27:16.633Z,71.40
2022-08-03T07:29:43.366Z,71.40
2022-08-03T07:32:10.157Z,71.50
2022-08-03T07:34:36.938Z,71.40
2022-08-03T07:37:03.790Z,71.30
2022-08-03T07:39:30.591Z,71.20
2022-08-03T07:41:57.308Z,70.90
2022-08-03T07:44:24.093Z,70.90
2022-08-03T07:46:50.788Z,70.90
2022-08-03T07:49:18.806Z,70.80
2022-08-03T07:51:45.558Z,70.80
2022-08-03T07:54:12.274Z,70.90
2022-08-03T07:56:39.340Z,70.90
2022-08-03T07:59:06.066Z,70.80
2022-08-03T08:01:32.956Z,70.60
2022-08-03T08:03:59.739Z,70.70
2022-08-03T08:06:26.512Z,70.80
2022-08-03T08:08:53.370Z,70.80
2022-08-03T08:11:20.050Z,70.60
2022-08-03T08:13:46.746Z,70.40
2022-08-03T08:16:13.500Z,70.20
2022-08-03T08:18:40.212Z,70.00
2022-08-03T08:21:06.926Z,69.70
2022-08-03T08:23:41.948Z,69.50
2022-08-03T08:26:10.348Z,69.20
2022-08-03T08:28:37.084Z,69.00
2022-08-03T08:31:03.841Z,69.20
2022-08-03T08:33:48.010Z,69.20
2022-08-03T08:36:17.282Z,69.10
2022-08-03T08:38:44.145Z,69.00
2022-08-03T08:41:14.482Z,68.90
2022-08-03T08:43:41.494Z,68.90
2022-08-03T08:46:11.086Z,68.70
2022-08-03T08:48:40.637Z,68.40
2022-08-03T08:51:07.330Z,68.30
2022-08-03T08:53:35.899Z,68.00
2022-08-03T08:56:03.250Z,68.00
2022-08-03T08:58:32.299Z,67.70
2022-08-03T09:00:59.120Z,67.60
2022-08-03T09:03:30.025Z,67.50
2022-08-03T09:06:00.774Z,67.40
2022-08-03T09:08:28.733Z,67.50
2022-08-03T09:10:55.435Z,67.50
2022-08-03T09:13:22.164Z,67.30
2022-08-03T09:16:01.274Z,67.00
2022-08-03T09:18:32.281Z,66.80
2022-08-03T09:21:30.634Z,66.70
2022-08-03T09:24:02.887Z,66.70
2022-08-03T09:26:31.033Z,66.90
2022-08-03T09:29:04.651Z,66.60
2022-08-03T09:31:37.251Z,66.20
2022-08-03T09:34:08.330Z,66.10
2022-08-03T09:36:45.054Z,66.00
2022-08-03T09:39:18.792Z,65.80
2022-08-03T09:42:03.802Z,65.70
2022-08-03T09:44:37.753Z,65.50
2022-08-03T09:47:04.844Z,65.30
2022-08-03T09:49:31.990Z,65.30
2022-08-03T09:52:32.221Z,65.20
2022-08-03T09:54:51.647Z,65.00
2022-08-03T09:57:22.640Z,64.70
2022-08-03T09:59:49.661Z,64.50
2022-08-03T10:02:27.081Z,64.20
2022-08-03T10:04:53.987Z,63.70
2022-08-03T10:07:22.025Z,63.70
2022-08-03T10:10:30.157Z,63.50
2022-08-03T10:12:48.299Z,63.20
2022-08-03T10:16:23.719Z,63.00
2022-08-03T10:18:02.679Z,62.80
2022-08-03T10:20:32.579Z,62.70
2022-08-03T10:22:59.292Z,62.50
2022-08-03T10:25:33.157Z,62.30
2022-08-03T10:28:00.254Z,62.00
2022-08-03T10:30:27.861Z,61.60
2022-08-03T10:32:55.883Z,61.40
2022-08-03T10:35:22.661Z,61.30
2022-08-03T10:38:02.021Z,61.10
2022-08-03T10:40:48.187Z,61.00
2022-08-03T10:43:20.866Z,60.70
2022-08-03T10:45:47.569Z,59.90
2022-08-03T10:48:14.315Z,58.90
2022-08-03T10:50:43.724Z,57.60
2022-08-03T10:53:10.456Z,56.60
2022-08-03T10:55:41.095Z,55.10
2022-08-03T10:58:11.252Z,54.00
2022-08-03T11:00:49.136Z,53.80
2022-08-03T11:03:16.305Z,52.40
2022-08-03T11:05:44.688Z,51.90
2022-08-03T11:08:22.091Z,51.50
2022-08-03T11:10:49.994Z,51.60
2022-08-03T11:13:21.527Z,50.80
2022-08-03T11:15:49.750Z,50.00
2022-08-03T11:18:16.584Z,47.70
2022-08-03T11:20:48.074Z,46.70
2022-08-03T11:23:15.664Z,46.00
2022-08-03T11:26:10.983Z,46.40
2022-08-03T11:28:37.858Z,46.30
2022-08-03T11:31:48.077Z,45.90
2022-08-03T11:34:10.682Z,44.40
2022-08-03T11:37:15.087Z,44.10
2022-08-03T11:39:42.746Z,42.90
2022-08-03T11:42:24.795Z,42.50
2022-08-03T11:44:52.315Z,41.50
2022-08-03T11:47:22.737Z,41.30
2022-08-03T11:49:50.788Z,40.60
2022-08-03T11:52:17.787Z,40.40
2022-08-03T11:54:44.560Z,40.30
2022-08-03T11:57:11.333Z,40.10
2022-08-03T11:59:38.772Z,40.40
2022-08-03T12:02:13.254Z,40.90
2022-08-03T12:04:56.850Z,41.40
2022-08-03T12:08:02.494Z,41.30
2022-08-03T12:10:12.337Z,40.80
2022-08-03T12:12:42.210Z,40.30
2022-08-03T12:15:13.171Z,40.50
2022-08-03T12:17:40.505Z,39.80
2022-08-03T12:20:09.259Z,39.10
2022-08-03T12:22:37.428Z,38.60
2022-08-03T12:25:07.807Z,38.60
2022-08-03T12:27:34.888Z,38.60
2022-08-03T12:30:01.828Z,38.40
2022-08-03T12:32:29.054Z,37.70
2022-08-03T12:34:56.350Z,37.80
2022-08-03T12:37:23.696Z,37.90
2022-08-03T12:40:02.449Z,37.30
2022-08-03T12:42:37.963Z,36.40
2022-08-03T12:45:21.529Z,36.90
2022-08-03T12:47:58.719Z,37.90
2022-08-03T12:50:32.904Z,38.70
2022-08-03T12:53:04.262Z,38.00
2022-08-03T12:55:31.407Z,36.90
2022-08-03T12:58:33.091Z,36.00
2022-08-03T13:00:59.881Z,35.20
2022-08-03T13:03:39.518Z,35.80
2022-08-03T13:06:16.435Z,35.50
2022-08-03T13:08:43.574Z,34.60
2022-08-03T13:11:43.474Z,33.90
2022-08-03T13:14:16.817Z,33.10
2022-08-03T13:16:47.873Z,32.90
2022-08-03T13:19:15.385Z,32.50
2022-08-03T13:22:01.824Z,32.00
2022-08-03T13:24:30.344Z,31.50
2022-08-03T13:26:57.283Z,31.30
2022-08-03T13:29:23.998Z,30.90
2022-08-03T13:31:51.096Z,30.30
2022-08-03T13:34:22.662Z,30.00
2022-08-03T13:37:08.442Z,30.00
2022-08-03T13:39:48.179Z,29.80
2022-08-03T13:42:22.883Z,29.40
2022-08-03T13:44:49.598Z,29.20
2022-08-03T13:47:16.368Z,28.90
2022-08-03T13:50:00.542Z,28.50
2022-08-03T13:52:37.929Z,28.20
2022-08-03T13:55:05.521Z,28.10
2022-08-03T13:58:06.505Z,28.30
2022-08-03T14:00:28.213Z,28.10
2022-08-03T14:03:13.902Z,27.80
2022-08-03T14:05:41.987Z,28.00
2022-08-03T14:08:08.934Z,27.20
2022-08-03T14:10:40.363Z,26.90
2022-08-03T14:13:07.508Z,26.70
2022-08-03T14:15:37.523Z,26.70
2022-08-03T14:18:04.804Z,26.60
2022-08-03T14:20:38.849Z,26.40
2022-08-03T14:23:15.626Z,26.30
2022-08-03T14:25:50.389Z,26.00
2022-08-03T14:28:21.058Z,25.70
2022-08-03T14:30:47.785Z,25.50
2022-08-03T14:33:14.806Z,25.30
2022-08-03T14:35:41.481Z,25.00
2022-08-03T14:38:08.216Z,24.60
2022-08-03T14:40:34.920Z,24.20
2022-08-03T14:43:06.843Z,23.90
2022-08-03T14:45:33.538Z,23.60
2022-08-03T14:50:30.416Z,23.60
2022-08-03T14:50:50.951Z,23.70
2022-08-03T14:53:18.879Z,23.60
2022-08-03T14:55:49.538Z,23.50
2022-08-03T14:58:20.586Z,23.40
2022-08-03T15:00:48.270Z,23.30
2022-08-03T15:03:15.934Z,23.20
2022-08-03T15:05:44.026Z,23.70
2022-08-03T15:08:10.855Z,24.90
2022-08-03T15:10:44.487Z,26.00
2022-08-03T15:13:12.955Z,27.20
2022-08-03T15:15:39.891Z,27.70
2022-08-03T15:18:06.849Z,27.90
2022-08-03T15:20:43.764Z,28.10
2022-08-03T15:23:11.889Z,28.50
2022-08-03T15:26:07.079Z,28.80
2022-08-03T15:28:25.459Z,28.90
2022-08-03T15:30:52.648Z,28.70
2022-08-03T15:33:20.647Z,28.80
2022-08-03T15:35:47.405Z,29.10
2022-08-03T15:38:14.115Z,29.40
2022-08-03T15:40:40.830Z,29.60
2022-08-03T15:43:07.759Z,30.00
2022-08-03T15:45:35.349Z,31.00
2022-08-03T15:48:06.607Z,31.40
2022-08-03T15:50:33.520Z,31.80
2022-08-03T15:53:00.325Z,32.50
2022-08-03T15:55:27.103Z,33.20
2022-08-03T15:59:04.665Z,33.30
2022-08-03T16:00:41.284Z,33.80
2022-08-03T16:03:08.036Z,34.00
2022-08-03T16:05:34.780Z,33.80
2022-08-03T16:08:03.629Z,34.10
2022-08-03T16:10:32.166Z,34.70
2022-08-03T16:12:59.012Z,34.70
2022-08-03T16:15:25.784Z,34.60
2022-08-03T16:17:52.512Z,34.70
2022-08-03T16:20:31.223Z,34.80
2022-08-03T16:23:01.620Z,34.60
2022-08-03T16:25:38.072Z,34.20
2022-08-03T16:28:07.820Z,33.50
2022-08-03T16:30:39.804Z,33.30
2022-08-03T16:33:06.501Z,33.50
2022-08-03T16:35:33.304Z,33.90
2022-08-03T16:38:00.641Z,34.60
2022-08-03T16:40:27.561Z,35.10
2022-08-03T16:42:54.274Z,35.60
2022-08-03T16:45:21.169Z,35.90
2022-08-03T16:47:47.866Z,36.30
2022-08-03T16:50:28.091Z,36.70
2022-08-03T16:52:55.059Z,36.90
2022-08-03T16:55:48.937Z,37.30
2022-08-03T16:58:08.692Z,37.60
2022-08-03T17:00:41.933Z,38.00
2022-08-03T17:03:19.031Z,38.20
2022-08-03T17:05:49.599Z,38.50
2022-08-03T17:08:26.196Z,38.80
2022-08-03T17:10:53.143Z,39.20
2022-08-03T17:13:21.892Z,39.30
2022-08-03T17:15:58.052Z,39.70
2022-08-03T17:18:32.819Z,39.90
2022-08-03T17:20:59.685Z,40.20
2022-08-03T17:23:35.146Z,40.30
2022-08-03T17:26:04.770Z,40.70
2022-08-03T17:28:49.289Z,40.80
2022-08-03T17:31:23.591Z,41.10
2022-08-03T17:34:00.375Z,41.30
2022-08-03T17:36:41.797Z,41.50
2022-08-03T17:39:21.118Z,41.70
2022-08-03T17:41:57.800Z,42.00
2022-08-03T17:44:28.901Z,42.20
2022-08-03T17:47:00.081Z,42.50
2022-08-03T17:49:27.993Z,42.70
2022-08-03T17:51:58.883Z,42.90
2022-08-03T17:55:50.861Z,43.20
2022-08-03T17:58:01.970Z,43.40
2022-08-03T18:00:29.656Z,43.60
2022-08-03T18:03:15.402Z,43.70
2022-08-03T18:06:12.720Z,43.80
2022-08-03T18:08:38.790Z,44.00
2022-08-03T18:11:14.862Z,44.20
2022-08-03T18:13:58.173Z,44.50
2022-08-03T18:16:39.689Z,44.70
2022-08-03T18:19:14.442Z,44.80
2022-08-03T18:22:03.366Z,45.00
2022-08-03T18:24:29.504Z,45.20
2022-08-03T18:26:56.799Z,45.30
2022-08-03T18:29:24.086Z,45.60
2022-08-03T18:32:01.533Z,45.80
2022-08-03T18:34:33.599Z,45.90
2022-08-03T18:37:01.062Z,46.10
2022-08-03T18:39:35.994Z,46.30
2022-08-03T18:42:25.793Z,46.40
2022-08-03T18:44:56.380Z,46.60
2022-08-03T18:47:26.430Z,46.80
2022-08-03T18:50:19.010Z,47.10
2022-08-03T18:52:58.153Z,47.30
2022-08-03T18:55:33.513Z,47.50
2022-08-03T18:58:05.993Z,47.60
2022-08-03T19:00:53.982Z,47.90
2022-08-03T19:03:23.751Z,48.00
2022-08-03T19:06:08.616Z,48.20
2022-08-03T19:08:49.326Z,48.40
2022-08-03T19:11:28.079Z,48.50
2022-08-03T19:13:56.683Z,48.60
2022-08-03T19:16:31.650Z,48.70
2022-08-03T19:19:00.956Z,48.90
2022-08-03T19:21:33.635Z,49.00
2022-08-03T19:24:01.480Z,49.30
2022-08-03T19:26:30.185Z,49.40
2022-08-03T19:28:57.605Z,49.50
2022-08-03T19:31:30.729Z,49.70
2022-08-03T19:33:58.305Z,50.00
2022-08-03T19:36:28.219Z,50.00
2022-08-03T19:38:55.958Z,50.20
2022-08-03T19:44:19.838Z,50.50
2022-08-03T19:46:54.097Z,50.50
2022-08-03T19:49:22.226Z,50.70
2022-08-03T19:52:01.083Z,50.90
2022-08-03T19:54:52.743Z,51.00
2022-08-03T19:57:22.627Z,51.30
2022-08-03T19:59:50.436Z,51.30
2022-08-03T20:02:25.707Z,51.50
2022-08-03T20:04:57.844Z,51.60
2022-08-03T20:07:27.556Z,51.70
2022-08-03T20:09:56.444Z,51.90
2022-08-03T20:12:27.772Z,52.00
2022-08-03T20:14:58.631Z,52.10
2022-08-03T20:17:54.498Z,52.30
2022-08-03T20:20:12.890Z,52.40
2022-08-03T20:22:42.388Z,52.50
2022-08-03T20:25:12.316Z,52.80
2022-08-03T20:28:07.093Z,52.90
2022-08-03T20:30:33.193Z,53.10
2022-08-03T20:32:59.874Z,53.10
2022-08-03T20:35:26.865Z,53.20
2022-08-03T20:37:54.796Z,53.50
2022-08-03T20:40:22.514Z,53.50
2022-08-03T20:42:54.302Z,53.60
2022-08-03T20:46:00.296Z,53.80
2022-08-03T20:48:09.556Z,53.90
2022-08-03T20:50:39.247Z,54.10
2022-08-03T20:53:06.965Z,54.20
2022-08-03T20:55:47.454Z,54.20
2022-08-03T20:58:20.970Z,54.40
2022-08-03T21:00:51.583Z,54.50
2022-08-03T21:03:18.916Z,54.60
2022-08-03T21:05:51.025Z,54.70
2022-08-03T21:08:18.436Z,54.80
2022-08-03T21:10:45.124Z,54.90
2022-08-03T21:13:10.907Z,50.40
2022-08-03T21:16:04.828Z,55.20
2022-08-03T21:18:44.520Z,55.30
2022-08-03T21:21:12.704Z,55.50
2022-08-03T21:23:47.558Z,55.40
2022-08-03T21:26:15.145Z,55.50
2022-08-03T21:28:41.826Z,55.50
2022-08-03T21:31:09.058Z,55.60
2022-08-03T21:33:35.798Z,55.70
2022-08-03T21:36:08.102Z,55.90
2022-08-03T21:38:34.931Z,56.10
2022-08-03T21:41:01.742Z,56.10
2022-08-03T21:43:28.636Z,56.30
2022-08-03T21:45:58.643Z,56.50
2022-08-03T21:48:25.782Z,56.80
2022-08-03T21:50:52.631Z,56.80
2022-08-03T21:53:19.576Z,57.00
2022-08-03T21:55:50.824Z,57.10
2022-08-03T21:58:17.654Z,57.20
2022-08-03T22:00:44.373Z,57.30
2022-08-03T22:03:17.485Z,57.40
2022-08-03T22:05:44.763Z,57.60
2022-08-03T22:08:12.913Z,57.60
2022-08-03T22:10:39.709Z,57.80
2022-08-03T22:13:06.527Z,57.80
2022-08-03T22:15:33.238Z,58.00
2022-08-03T22:17:59.949Z,58.00
2022-08-03T22:20:26.650Z,58.10
2022-08-03T22:22:56.226Z,58.20
2022-08-03T22:25:28.005Z,58.30
2022-08-03T22:27:54.812Z,58.40
2022-08-03T22:30:21.528Z,59.20
2022-08-03T22:32:50.313Z,58.60
2022-08-03T22:35:17.062Z,58.80
2022-08-03T22:37:43.738Z,58.90
2022-08-03T22:40:12.305Z,59.00
2022-08-03T22:42:39.985Z,59.80
2022-08-03T22:45:07.449Z,59.30
2022-08-03T22:47:38.551Z,59.40
2022-08-03T22:50:32.867Z,59.60
2022-08-03T22:52:54.661Z,59.70
2022-08-03T22:55:24.743Z,59.70
2022-08-03T22:57:56.143Z,59.80
2022-08-03T23:00:23.262Z,59.90
2022-08-03T23:02:49.998Z,60.00
2022-08-03T23:06:01.778Z,60.00
2022-08-03T23:08:15.231Z,60.20
2022-08-03T23:10:46.686Z,60.30
2022-08-03T23:13:16.265Z,60.50
2022-08-03T23:15:42.970Z,60.60
2022-08-03T23:18:09.728Z,60.70
2022-08-03T23:20:36.502Z,60.80
2022-08-03T23:23:03.569Z,60.90
2022-08-03T23:25:31.703Z,60.90
2022-08-03T23:28:05.146Z,61.00
2022-08-03T23:30:34.017Z,61.10
2022-08-03T23:33:00.811Z,61.30
2022-08-03T23:36:08.970Z,61.30
2022-08-03T23:38:21.895Z,61.40
2022-08-03T23:40:51.403Z,61.50
2022-08-03T23:43:39.849Z,61.60
2022-08-03T23:46:06.866Z,61.70
2022-08-03T23:48:34.071Z,61.70
2022-08-03T23:51:03.500Z,61.80
2022-08-03T23:53:41.626Z,61.90
2022-08-03T23:56:17.430Z,61.90
2022-08-03T23:58:57.601Z,61.90
